Time,TemperatureF,DewpointF,PressureIn,WindDirection,WindDirectionDegrees,WindSpeedMPH,WindSpeedGustMPH,Humidity,HourlyPrecipIn,Conditions,Clouds,dailyrainin,SoftwareType,DateUTC
2013-12-06 00:05:00,63.5,56.1,-100.00,North,-999,0.0,0.0,77,0.00,,,-99.99,FreeWX-Wi 1.02,2013-12-06 05:05:00,
2013-12-06 00:15:00,63.5,56.1,-100.00,North,-999,0.0,0.0,77,0.00,,,-99.99,FreeWX-Wi 1.02,2013-12-06 05:15:00,
2013-12-06 00:25:00,63.5,56.1,-100.00,North,-999,0.0,0.0,77,0.00,,,-99.99,FreeWX-Wi 1.02,2013-12-06 05:25:00,
2013-12-06 00:35:00,63.5,56.1,-100.00,North,-999,0.0,0.0,77,0.00,,,-99.99,FreeWX-Wi 1.02,2013-12-06 05:35:00,
2013-12-06 00:45:00,63.5,56.1,-100.00,North,-999,0.0,0.0,77,0.00,,,-99.99,FreeWX-Wi 1.02,2013-12-06 05:45:00,
2013-12-06 00:55:00,63.5,56.1,-100.00,North,-999,0.0,0.0,77,0.00,,,-99.99,FreeWX-Wi 1.02,2013-12-06 05:55:00,
2013-12-06 01:05:00,63.5,56.1,-100.00,North,-999,0.0,0.0,77,0.00,,,-99.99,FreeWX-Wi 1.02,2013-12-06 06:05:00,
2013-12-06 01:15:00,63.5,56.1,-100.00,North,-999,0.0,0.0,77,0.00,,,-99.99,FreeWX-Wi 1.02,2013-12-06 06:15:00,
2013-12-06 01:25:00,63.5,56.1,-100.00,North,-999,0.0,0.0,77,0.00,,,-99.99,FreeWX-Wi 1.02,2013-12-06 06:25:00,
2013-12-06 01:35:00,63.5,56.1,-100.00,North,-999,0.0,0.0,77,0.00,,,-99.99,FreeWX-Wi 1.02,2013-12-06 06:35:00,
2013-12-06 01:45:00,63.3,55.9,-100.00,North,-999,0.0,0.0,77,0.00,,,-99.99,FreeWX-Wi 1.02,2013-12-06 06:45:00,
2013-12-06 01:55:00,63.3,55.9,-100.00,North,-999,0.0,0.0,77,0.00,,,-99.99,FreeWX-Wi 1.02,2013-12-06 06:55:00,
2013-12-06 02:05:00,63.5,56.1,-100.00,North,-999,0.0,0.0,77,0.00,,,-99.99,FreeWX-Wi 1.02,2013-12-06 07:05:00,
2013-12-06 02:15:00,63.5,56.1,-100.00,North,-999,0.0,0.0,77,0.00,,,-99.99,FreeWX-Wi 1.02,2013-12-06 07:15:00,
2013-12-06 02:25:00,63.3,55.9,-100.00,North,-999,0.0,0.0,77,0.00,,,-99.99,FreeWX-Wi 1.02,2013-12-06 07:25:00,
2013-12-06 02:35:00,63.3,55.9,-100.00,North,-999,0.0,0.0,77,0.00,,,-99.99,FreeWX-Wi 1.02,2013-12-06 07:35:00,
2013-12-06 02:45:00,63.3,55.9,-100.00,North,-999,0.0,0.0,77,0.00,,,-99.99,FreeWX-Wi 1.02,2013-12-06 07:45:00,
2013-12-06 02:55:00,63.3,55.9,-100.00,North,-999,0.0,0.0,77,0.00,,,-99.99,FreeWX-Wi 1.02,2013-12-06 07:55:00,
2013-12-06 03:05:00,63.3,55.9,-100.00,North,-999,0.0,0.0,77,0.00,,,-99.99,FreeWX-Wi 1.02,2013-12-06 08:05:00,
2013-12-06 03:15:00,63.3,55.9,-100.00,North,-999,0.0,0.0,77,0.00,,,-99.99,FreeWX-Wi 1.02,2013-12-06 08:15:00,
2013-12-06 03:25:00,63.3,55.9,-100.00,North,-999,0.0,0.0,77,0.00,,,-99.99,FreeWX-Wi 1.02,2013-12-06 08:25:00,
2013-12-06 03:35:00,63.3,55.9,-100.00,North,-999,0.0,0.0,77,0.00,,,-99.99,FreeWX-Wi 1.02,2013-12-06 08:35:00,
2013-12-06 03:45:00,63.3,55.9,-100.00,North,-999,0.0,0.0,77,0.00,,,-99.99,FreeWX-Wi 1.02,2013-12-06 08:45:00,
2013-12-06 03:55:00,63.1,55.8,-100.00,North,-999,0.0,0.0,77,0.00,,,-99.99,FreeWX-Wi 1.02,2013-12-06 08:55:00,
2013-12-06 04:05:00,63.0,55.6,-100.00,North,-999,0.0,0.0,77,0.00,,,-99.99,FreeWX-Wi 1.02,2013-12-06 09:05:00,
2013-12-06 04:15:00,62.8,55.4,-100.00,North,-999,0.0,0.0,77,0.00,,,-99.99,FreeWX-Wi 1.02,2013-12-06 09:15:00,
2013-12-06 04:25:00,62.6,55.2,-100.00,North,-999,0.0,0.0,77,0.00,,,-99.99,FreeWX-Wi 1.02,2013-12-06 09:25:00,
2013-12-06 04:35:00,62.6,55.2,-100.00,North,-999,0.0,0.0,77,0.00,,,-99.99,FreeWX-Wi 1.02,2013-12-06 09:35:00,
2013-12-06 04:45:00,62.4,55.0,-100.00,North,-999,0.0,0.0,77,0.00,,,-99.99,FreeWX-Wi 1.02,2013-12-06 09:45:00,
2013-12-06 04:55:00,62.2,54.9,-100.00,North,-999,0.0,0.0,77,0.00,,,-99.99,FreeWX-Wi 1.02,2013-12-06 09:55:00,
2013-12-06 05:05:00,62.2,54.9,-100.00,North,-999,0.0,0.0,77,0.00,,,-99.99,FreeWX-Wi 1.02,2013-12-06 10:05:00,
2013-12-06 05:15:00,62.2,54.9,-100.00,North,-999,0.0,0.0,77,0.00,,,-99.99,FreeWX-Wi 1.02,2013-12-06 10:15:00,
2013-12-06 05:25:00,62.1,54.7,-100.00,North,-999,0.0,0.0,77,0.00,,,-99.99,FreeWX-Wi 1.02,2013-12-06 10:25:00,
2013-12-06 05:35:00,62.1,54.7,-100.00,North,-999,0.0,0.0,77,0.00,,,-99.99,FreeWX-Wi 1.02,2013-12-06 10:35:00,
2013-12-06 05:45:00,61.9,54.5,-100.00,North,-999,0.0,0.0,77,0.00,,,-99.99,FreeWX-Wi 1.02,2013-12-06 10:45:00,
2013-12-06 05:55:00,61.9,54.5,-100.00,North,-999,0.0,0.0,77,0.00,,,-99.99,FreeWX-Wi 1.02,2013-12-06 10:55:00,
2013-12-06 06:05:00,61.9,54.5,-100.00,North,-999,0.0,0.0,77,0.00,,,-99.99,FreeWX-Wi 1.02,2013-12-06 11:05:00,
2013-12-06 06:15:00,61.9,54.5,-100.00,North,-999,0.0,0.0,77,0.00,,,-99.99,FreeWX-Wi 1.02,2013-12-06 11:15:00,
2013-12-06 06:25:00,61.9,54.5,-100.00,North,-999,0.0,0.0,77,0.00,,,-99.99,FreeWX-Wi 1.02,2013-12-06 11:25:00,
2013-12-06 06:35:00,61.7,54.5,-100.00,North,-999,0.0,0.0,77,0.00,,,-99.99,FreeWX-Wi 1.02,2013-12-06 11:35:00,
2013-12-06 06:45:00,61.7,54.5,-100.00,North,-999,0.0,0.0,77,0.00,,,-99.99,FreeWX-Wi 1.02,2013-12-06 11:45:00,
2013-12-06 06:55:00,61.7,54.5,-100.00,North,-999,0.0,0.0,77,0.00,,,-99.99,FreeWX-Wi 1.02,2013-12-06 11:55:00,
2013-12-06 07:05:00,61.7,54.5,-100.00,North,-999,0.0,0.0,77,0.00,,,-99.99,FreeWX-Wi 1.02,2013-12-06 12:05:00,
2013-12-06 07:15:00,61.7,54.5,-100.00,North,-999,0.0,0.0,77,0.00,,,-99.99,FreeWX-Wi 1.02,2013-12-06 12:15:00,
2013-12-06 07:25:00,61.7,54.5,-100.00,North,-999,0.0,0.0,77,0.00,,,-99.99,FreeWX-Wi 1.02,2013-12-06 12:25:00,
2013-12-06 07:35:00,61.9,54.5,-100.00,North,-999,0.0,0.0,77,0.00,,,-99.99,FreeWX-Wi 1.02,2013-12-06 12:35:00,
2013-12-06 07:45:00,62.1,54.7,-100.00,North,-999,0.0,0.0,77,0.00,,,-99.99,FreeWX-Wi 1.02,2013-12-06 12:45:00,
2013-12-06 07:55:00,62.4,55.0,-100.00,North,-999,0.0,0.0,77,0.00,,,-99.99,FreeWX-Wi 1.02,2013-12-06 12:55:00,
2013-12-06 08:05:00,62.6,55.2,-100.00,North,-999,0.0,0.0,77,0.00,,,-99.99,FreeWX-Wi 1.02,2013-12-06 13:05:00,
2013-12-06 08:15:00,62.8,55.0,-100.00,North,-999,0.0,0.0,76,0.00,,,-99.99,FreeWX-Wi 1.02,2013-12-06 13:15:00,
2013-12-06 08:25:00,62.8,55.0,-100.00,North,-999,0.0,0.0,76,0.00,,,-99.99,FreeWX-Wi 1.02,2013-12-06 13:25:00,
2013-12-06 08:35:00,63.3,55.9,-100.00,North,-999,0.0,0.0,77,0.00,,,-99.99,FreeWX-Wi 1.02,2013-12-06 13:35:00,
2013-12-06 08:45:00,63.7,56.3,-100.00,North,-999,0.0,0.0,77,0.00,,,-99.99,FreeWX-Wi 1.02,2013-12-06 13:45:00,
2013-12-06 08:55:00,64.2,56.8,-100.00,North,-999,0.0,0.0,77,0.00,,,-99.99,FreeWX-Wi 1.02,2013-12-06 13:55:00,
2013-12-06 09:05:00,64.6,56.8,-100.00,North,-999,0.0,0.0,76,0.00,,,-99.99,FreeWX-Wi 1.02,2013-12-06 14:05:00,
2013-12-06 09:15:00,65.1,57.4,-100.00,North,-999,0.0,0.0,76,0.00,,,-99.99,FreeWX-Wi 1.02,2013-12-06 14:15:00,
2013-12-06 09:25:00,65.7,57.9,-100.00,North,-999,0.0,0.0,76,0.00,,,-99.99,FreeWX-Wi 1.02,2013-12-06 14:25:00,
2013-12-06 09:35:00,65.7,57.9,-100.00,North,-999,0.0,0.0,76,0.00,,,-99.99,FreeWX-Wi 1.02,2013-12-06 14:35:00,
2013-12-06 09:45:00,65.8,58.1,-100.00,North,-999,0.0,0.0,76,0.00,,,-99.99,FreeWX-Wi 1.02,2013-12-06 14:45:00,
2013-12-06 09:55:00,66.0,58.3,-100.00,North,-999,0.0,0.0,76,0.00,,,-99.99,FreeWX-Wi 1.02,2013-12-06 14:55:00,
2013-12-06 10:05:00,66.4,58.3,-100.00,North,-999,0.0,0.0,75,0.00,,,-99.99,FreeWX-Wi 1.02,2013-12-06 15:05:00,
2013-12-06 10:15:00,66.7,58.6,-100.00,North,-999,0.0,0.0,75,0.00,,,-99.99,FreeWX-Wi 1.02,2013-12-06 15:15:00,
2013-12-06 10:25:00,67.1,58.5,-100.00,North,-999,0.0,0.0,74,0.00,,,-99.99,FreeWX-Wi 1.02,2013-12-06 15:25:00,
2013-12-06 10:35:00,67.5,58.5,-100.00,North,-999,0.0,0.0,73,0.00,,,-99.99,FreeWX-Wi 1.02,2013-12-06 15:35:00,
2013-12-06 10:45:00,67.6,58.3,-100.00,North,-999,0.0,0.0,72,0.00,,,-99.99,FreeWX-Wi 1.02,2013-12-06 15:45:00,
2013-12-06 10:55:00,68.0,57.9,-100.00,North,-999,0.0,0.0,70,0.00,,,-99.99,FreeWX-Wi 1.02,2013-12-06 15:55:00,
2013-12-06 11:05:00,68.2,57.6,-100.00,North,-999,0.0,0.0,69,0.00,,,-99.99,FreeWX-Wi 1.02,2013-12-06 16:05:00,
2013-12-06 11:15:00,68.7,57.4,-100.00,North,-999,0.0,0.0,67,0.00,,,-99.99,FreeWX-Wi 1.02,2013-12-06 16:15:00,
2013-12-06 11:25:00,69.4,57.2,-100.00,North,-999,0.0,0.0,65,0.00,,,-99.99,FreeWX-Wi 1.02,2013-12-06 16:25:00,
2013-12-06 11:35:00,70.3,55.8,-100.00,North,-999,0.0,0.0,60,0.00,,,-99.99,FreeWX-Wi 1.02,2013-12-06 16:35:00,
2013-12-06 11:45:00,71.2,51.6,-100.00,North,-999,0.0,0.0,50,0.00,,,-99.99,FreeWX-Wi 1.02,2013-12-06 16:45:00,
2013-12-06 11:55:00,71.6,50.4,-100.00,North,-999,0.0,0.0,47,0.00,,,-99.99,FreeWX-Wi 1.02,2013-12-06 16:55:00,
2013-12-06 12:05:00,71.8,49.8,-100.00,North,-999,0.0,0.0,46,0.00,,,-99.99,FreeWX-Wi 1.02,2013-12-06 17:05:00,
2013-12-06 12:15:00,72.0,50.0,-100.00,North,-999,0.0,0.0,46,0.00,,,-99.99,FreeWX-Wi 1.02,2013-12-06 17:15:00,
2013-12-06 12:25:00,72.1,50.7,-100.00,North,-999,0.0,0.0,47,0.00,,,-99.99,FreeWX-Wi 1.02,2013-12-06 17:25:00,
2013-12-06 12:35:00,72.3,49.8,-100.00,North,-999,0.0,0.0,45,0.00,,,-99.99,FreeWX-Wi 1.02,2013-12-06 17:35:00,
2013-12-06 12:45:00,72.5,50.0,-100.00,North,-999,0.0,0.0,45,0.00,,,-99.99,FreeWX-Wi 1.02,2013-12-06 17:45:00,
2013-12-06 12:55:00,72.9,49.6,-100.00,North,-999,0.0,0.0,44,0.00,,,-99.99,FreeWX-Wi 1.02,2013-12-06 17:55:00,
2013-12-06 13:05:00,73.2,50.0,-100.00,North,-999,0.0,0.0,44,0.00,,,-99.99,FreeWX-Wi 1.02,2013-12-06 18:05:00,
2013-12-06 13:15:00,73.4,50.2,-100.00,North,-999,0.0,0.0,44,0.00,,,-99.99,FreeWX-Wi 1.02,2013-12-06 18:15:00,
2013-12-06 13:25:00,73.8,49.8,-100.00,North,-999,0.0,0.0,43,0.00,,,-99.99,FreeWX-Wi 1.02,2013-12-06 18:25:00,
2013-12-06 13:35:00,73.6,49.6,-100.00,North,-999,0.0,0.0,43,0.00,,,-99.99,FreeWX-Wi 1.02,2013-12-06 18:35:00,
2013-12-06 13:45:00,73.8,49.3,-100.00,North,-999,0.0,0.0,42,0.00,,,-99.99,FreeWX-Wi 1.02,2013-12-06 18:45:00,
2013-12-06 13:55:00,73.9,49.5,-100.00,North,-999,0.0,0.0,42,0.00,,,-99.99,FreeWX-Wi 1.02,2013-12-06 18:55:00,
2013-12-06 14:05:00,74.1,49.5,-100.00,North,-999,0.0,0.0,42,0.00,,,-99.99,FreeWX-Wi 1.02,2013-12-06 19:05:00,
2013-12-06 14:15:00,74.1,49.5,-100.00,North,-999,0.0,0.0,42,0.00,,,-99.99,FreeWX-Wi 1.02,2013-12-06 19:15:00,
2013-12-06 14:25:00,74.3,49.6,-100.00,North,-999,0.0,0.0,42,0.00,,,-99.99,FreeWX-Wi 1.02,2013-12-06 19:25:00,
2013-12-06 14:35:00,74.3,50.4,-100.00,North,-999,0.0,0.0,43,0.00,,,-99.99,FreeWX-Wi 1.02,2013-12-06 19:35:00,
2013-12-06 14:45:00,74.1,49.5,-100.00,North,-999,0.0,0.0,42,0.00,,,-99.99,FreeWX-Wi 1.02,2013-12-06 19:45:00,
2013-12-06 14:55:00,73.9,49.5,-100.00,North,-999,0.0,0.0,42,0.00,,,-99.99,FreeWX-Wi 1.02,2013-12-06 19:55:00,
2013-12-06 15:05:00,73.8,49.3,-100.00,North,-999,0.0,0.0,42,0.00,,,-99.99,FreeWX-Wi 1.02,2013-12-06 20:05:00,
2013-12-06 15:15:00,73.4,48.2,-100.00,North,-999,0.0,0.0,41,0.00,,,-99.99,FreeWX-Wi 1.02,2013-12-06 20:15:00,
2013-12-06 15:25:00,73.2,48.7,-100.00,North,-999,0.0,0.0,42,0.00,,,-99.99,FreeWX-Wi 1.02,2013-12-06 20:25:00,
2013-12-06 15:35:00,73.0,49.3,-100.00,North,-999,0.0,0.0,43,0.00,,,-99.99,FreeWX-Wi 1.02,2013-12-06 20:35:00,
2013-12-06 15:45:00,72.7,48.9,-100.00,North,-999,0.0,0.0,43,0.00,,,-99.99,FreeWX-Wi 1.02,2013-12-06 20:45:00,
2013-12-06 15:55:00,72.3,48.6,-100.00,North,-999,0.0,0.0,43,0.00,,,-99.99,FreeWX-Wi 1.02,2013-12-06 20:55:00,
2013-12-06 16:05:00,72.0,48.9,-100.00,North,-999,0.0,0.0,44,0.00,,,-99.99,FreeWX-Wi 1.02,2013-12-06 21:05:00,
2013-12-06 16:15:00,71.6,48.6,-100.00,North,-999,0.0,0.0,44,0.00,,,-99.99,FreeWX-Wi 1.02,2013-12-06 21:15:00,
2013-12-06 16:25:00,71.4,48.9,-100.00,North,-999,0.0,0.0,45,0.00,,,-99.99,FreeWX-Wi 1.02,2013-12-06 21:25:00,
2013-12-06 16:35:00,71.1,49.3,-100.00,North,-999,0.0,0.0,46,0.00,,,-99.99,FreeWX-Wi 1.02,2013-12-06 21:35:00,
2013-12-06 16:45:00,70.5,48.7,-100.00,North,-999,0.0,0.0,46,0.00,,,-99.99,FreeWX-Wi 1.02,2013-12-06 21:45:00,
2013-12-06 16:55:00,70.3,49.1,-100.00,North,-999,0.0,0.0,47,0.00,,,-99.99,FreeWX-Wi 1.02,2013-12-06 21:55:00,
2013-12-06 17:05:00,70.0,48.7,-100.00,North,-999,0.0,0.0,47,0.00,,,-99.99,FreeWX-Wi 1.02,2013-12-06 22:05:00,
2013-12-06 17:15:00,69.6,49.1,-100.00,North,-999,0.0,0.0,48,0.00,,,-99.99,FreeWX-Wi 1.02,2013-12-06 22:15:00,
2013-12-06 17:25:00,69.3,48.7,-100.00,North,-999,0.0,0.0,48,0.00,,,-99.99,FreeWX-Wi 1.02,2013-12-06 22:25:00,
2013-12-06 17:35:00,69.1,49.1,-100.00,North,-999,0.0,0.0,49,0.00,,,-99.99,FreeWX-Wi 1.02,2013-12-06 22:35:00,
2013-12-06 17:45:00,68.9,48.9,-100.00,North,-999,0.0,0.0,49,0.00,,,-99.99,FreeWX-Wi 1.02,2013-12-06 22:45:00,
2013-12-06 17:55:00,68.5,48.6,-100.00,North,-999,0.0,0.0,49,0.00,,,-99.99,FreeWX-Wi 1.02,2013-12-06 22:55:00,
2013-12-06 18:05:00,68.4,48.9,-100.00,North,-999,0.0,0.0,50,0.00,,,-99.99,FreeWX-Wi 1.02,2013-12-06 23:05:00,
2013-12-06 18:15:00,68.2,48.7,-100.00,North,-999,0.0,0.0,50,0.00,,,-99.99,FreeWX-Wi 1.02,2013-12-06 23:15:00,
2013-12-06 18:25:00,67.8,49.1,-100.00,North,-999,0.0,0.0,51,0.00,,,-99.99,FreeWX-Wi 1.02,2013-12-06 23:25:00,
2013-12-06 18:35:00,67.6,48.9,-100.00,North,-999,0.0,0.0,51,0.00,,,-99.99,FreeWX-Wi 1.02,2013-12-06 23:35:00,
2013-12-06 18:45:00,67.5,49.3,-100.00,North,-999,0.0,0.0,52,0.00,,,-99.99,FreeWX-Wi 1.02,2013-12-06 23:45:00,
2013-12-06 18:55:00,67.5,49.3,-100.00,North,-999,0.0,0.0,52,0.00,,,-99.99,FreeWX-Wi 1.02,2013-12-06 23:55:00,
2013-12-06 19:05:00,67.3,49.1,-100.00,North,-999,0.0,0.0,52,0.00,,,-99.99,FreeWX-Wi 1.02,2013-12-07 00:05:00,
2013-12-06 19:15:00,67.3,49.6,-100.00,North,-999,0.0,0.0,53,0.00,,,-99.99,FreeWX-Wi 1.02,2013-12-07 00:15:00,
2013-12-06 19:25:00,67.1,49.5,-100.00,North,-999,0.0,0.0,53,0.00,,,-99.99,FreeWX-Wi 1.02,2013-12-07 00:25:00,
2013-12-06 19:35:00,66.9,49.6,-100.00,North,-999,0.0,0.0,54,0.00,,,-99.99,FreeWX-Wi 1.02,2013-12-07 00:35:00,
2013-12-06 19:45:00,66.7,49.6,-100.00,North,-999,0.0,0.0,54,0.00,,,-99.99,FreeWX-Wi 1.02,2013-12-07 00:45:00,
2013-12-06 19:55:00,66.6,49.8,-100.00,North,-999,0.0,0.0,55,0.00,,,-99.99,FreeWX-Wi 1.02,2013-12-07 00:55:00,
2013-12-06 20:05:00,66.6,50.4,-100.00,North,-999,0.0,0.0,56,0.00,,,-99.99,FreeWX-Wi 1.02,2013-12-07 01:05:00,
2013-12-06 20:15:00,66.6,50.4,-100.00,North,-999,0.0,0.0,56,0.00,,,-99.99,FreeWX-Wi 1.02,2013-12-07 01:15:00,
2013-12-06 20:25:00,66.6,50.9,-100.00,North,-999,0.0,0.0,57,0.00,,,-99.99,FreeWX-Wi 1.02,2013-12-07 01:25:00,
2013-12-06 20:35:00,66.6,50.9,-100.00,North,-999,0.0,0.0,57,0.00,,,-99.99,FreeWX-Wi 1.02,2013-12-07 01:35:00,
2013-12-06 20:45:00,66.6,50.9,-100.00,North,-999,0.0,0.0,57,0.00,,,-99.99,FreeWX-Wi 1.02,2013-12-07 01:45:00,
2013-12-06 20:55:00,66.4,50.7,-100.00,North,-999,0.0,0.0,57,0.00,,,-99.99,FreeWX-Wi 1.02,2013-12-07 01:55:00,
2013-12-06 21:05:00,66.2,50.9,-100.00,North,-999,0.0,0.0,58,0.00,,,-99.99,FreeWX-Wi 1.02,2013-12-07 02:05:00,
2013-12-06 21:15:00,66.2,51.4,-100.00,North,-999,0.0,0.0,59,0.00,,,-99.99,FreeWX-Wi 1.02,2013-12-07 02:15:00,
2013-12-06 21:25:00,66.0,51.8,-100.00,North,-999,0.0,0.0,60,0.00,,,-99.99,FreeWX-Wi 1.02,2013-12-07 02:25:00,
2013-12-06 21:35:00,65.8,51.6,-100.00,North,-999,0.0,0.0,60,0.00,,,-99.99,FreeWX-Wi 1.02,2013-12-07 02:35:00,
2013-12-06 21:45:00,65.8,52.0,-100.00,North,-999,0.0,0.0,61,0.00,,,-99.99,FreeWX-Wi 1.02,2013-12-07 02:45:00,
2013-12-06 21:55:00,65.8,52.0,-100.00,North,-999,0.0,0.0,61,0.00,,,-99.99,FreeWX-Wi 1.02,2013-12-07 02:55:00,
2013-12-06 22:05:00,65.8,52.5,-100.00,North,-999,0.0,0.0,62,0.00,,,-99.99,FreeWX-Wi 1.02,2013-12-07 03:05:00,
2013-12-06 22:15:00,65.8,52.9,-100.00,North,-999,0.0,0.0,63,0.00,,,-99.99,FreeWX-Wi 1.02,2013-12-07 03:15:00,
2013-12-06 22:25:00,65.8,52.9,-100.00,North,-999,0.0,0.0,63,0.00,,,-99.99,FreeWX-Wi 1.02,2013-12-07 03:25:00,
2013-12-06 22:35:00,65.7,52.7,-100.00,North,-999,0.0,0.0,63,0.00,,,-99.99,FreeWX-Wi 1.02,2013-12-07 03:35:00,
2013-12-06 22:45:00,65.7,53.1,-100.00,North,-999,0.0,0.0,64,0.00,,,-99.99,FreeWX-Wi 1.02,2013-12-07 03:45:00,
2013-12-06 22:55:00,65.5,53.1,-100.00,North,-999,0.0,0.0,64,0.00,,,-99.99,FreeWX-Wi 1.02,2013-12-07 03:55:00,
2013-12-06 23:05:00,65.3,52.9,-100.00,North,-999,0.0,0.0,64,0.00,,,-99.99,FreeWX-Wi 1.02,2013-12-07 04:05:00,
2013-12-06 23:15:00,65.3,53.2,-100.00,North,-999,0.0,0.0,65,0.00,,,-99.99,FreeWX-Wi 1.02,2013-12-07 04:15:00,
2013-12-06 23:25:00,65.1,53.1,-100.00,North,-999,0.0,0.0,65,0.00,,,-99.99,FreeWX-Wi 1.02,2013-12-07 04:25:00,
2013-12-06 23:35:00,65.1,53.4,-100.00,North,-999,0.0,0.0,66,0.00,,,-99.99,FreeWX-Wi 1.02,2013-12-07 04:35:00,
2013-12-06 23:45:00,65.1,53.4,-100.00,North,-999,0.0,0.0,66,0.00,,,-99.99,FreeWX-Wi 1.02,2013-12-07 04:45:00,
2013-12-06 23:55:00,64.9,53.2,-100.00,North,-999,0.0,0.0,66,0.00,,,-99.99,FreeWX-Wi 1.02,2013-12-07 04:55:00,